Time;durP1;ratioP1;P1;durP2;ratioP2;P2;SDS_P1;SDS_P2;PMS_P1;PMS_P2;Temp;Humidity;BMP_temperature;BMP_pressure;BME280_temperature;BME280_humidity;BME280_pressure;Samples;Min_cycle;Max_cycle;Signal;HPM_P1;HPM_P2
2021/01/16 00:00:14;;;;;;;10.13;7.32;;;0.50;98.30;;;;;;5126247;23;20565;-84
2021/01/16 00:02:16;;;;;;;10.82;7.50;;;0.40;98.30;;;;;;5126485;23;20207;-83
2021/01/16 00:04:20;;;;;;;10.30;7.95;;;0.40;98.30;;;;;;5125646;23;20202;-83
2021/01/16 00:06:28;;;;;;;10.75;8.35;;;0.40;98.30;;;;;;5116800;23;20214;-83
2021/01/16 00:08:31;;;;;;;11.48;8.13;;;0.40;98.30;;;;;;5123913;23;20206;-83
2021/01/16 00:10:36;;;;;;;9.18;7.55;;;0.30;98.30;;;;;;5128658;23;20225;-84
2021/01/16 00:12:39;;;;;;;10.73;8.27;;;0.40;98.30;;;;;;5123831;23;20587;-84
2021/01/16 00:14:41;;;;;;;10.80;8.30;;;0.30;98.30;;;;;;5132111;23;20273;-83
2021/01/16 00:16:43;;;;;;;11.35;8.52;;;0.20;98.30;;;;;;5130739;23;20229;-82
2021/01/16 00:18:45;;;;;;;10.35;8.10;;;0.20;98.30;;;;;;5129927;23;20202;-83
2021/01/16 00:20:49;;;;;;;9.90;8.35;;;0.20;98.30;;;;;;5124106;23;20573;-84
2021/01/16 00:22:51;;;;;;;9.80;7.95;;;0.20;98.30;;;;;;5135203;23;20210;-82
2021/01/16 00:24:54;;;;;;;9.82;7.70;;;0.20;98.30;;;;;;5131567;23;20207;-83
2021/01/16 00:26:57;;;;;;;10.48;7.65;;;0.20;98.30;;;;;;5130939;23;20210;-83
2021/01/16 00:28:59;;;;;;;10.60;8.00;;;0.20;98.30;;;;;;5130987;23;20978;-82
2021/01/16 00:31:01;;;;;;;15.90;8.25;;;0.20;98.30;;;;;;5129831;23;20209;-83
2021/01/16 00:33:14;;;;;;;8.73;7.60;;;0.20;98.30;;;;;;5129077;23;20718;-84
2021/01/16 00:35:18;;;;;;;9.30;7.70;;;0.20;98.30;;;;;;5125620;23;20206;-84
2021/01/16 00:37:20;;;;;;;12.05;8.10;;;0.20;98.30;;;;;;5127255;23;20209;-84
2021/01/16 00:39:22;;;;;;;10.95;7.65;;;0.30;98.30;;;;;;5126729;23;20581;-83
2021/01/16 00:41:25;;;;;;;9.32;7.70;;;0.30;98.30;;;;;;5126977;23;20206;-84
2021/01/16 00:43:28;;;;;;;8.45;7.35;;;0.30;98.30;;;;;;5119520;23;20624;-84
2021/01/16 00:45:30;;;;;;;10.15;7.53;;;0.20;98.30;;;;;;5127255;23;20203;-83
2021/01/16 00:47:34;;;;;;;11.50;8.75;;;0.10;98.30;;;;;;5119440;23;20214;-84
2021/01/16 00:49:36;;;;;;;9.77;8.10;;;0.20;98.30;;;;;;5125400;23;20503;-84
2021/01/16 00:51:38;;;;;;;11.75;8.50;;;0.10;98.30;;;;;;5117786;23;20240;-84
2021/01/16 00:53:40;;;;;;;10.15;7.72;;;0.20;98.30;;;;;;5125422;23;20240;-83
2021/01/16 00:55:43;;;;;;;11.38;7.90;;;0.20;98.30;;;;;;5125786;23;20206;-83
2021/01/16 00:57:45;;;;;;;9.52;7.85;;;0.20;98.30;;;;;;5124951;23;20202;-83
2021/01/16 00:59:48;;;;;;;10.50;8.25;;;0.20;98.30;;;;;;5126934;23;20264;-83
2021/01/16 01:01:50;;;;;;;10.65;8.25;;;0.10;98.30;;;;;;5119350;23;20624;-84
2021/01/16 01:03:52;;;;;;;10.82;8.98;;;0.00;98.30;;;;;;5127183;23;20243;-83
2021/01/16 01:05:56;;;;;;;9.52;8.10;;;-0.10;98.30;;;;;;5118123;23;20249;-84
2021/01/16 01:07:58;;;;;;;11.82;8.40;;;-0.10;98.30;;;;;;5126054;23;20216;-84
2021/01/16 01:10:00;;;;;;;10.82;8.25;;;0.00;98.30;;;;;;5119487;23;20328;-83
2021/01/16 01:12:03;;;;;;;9.32;8.13;;;0.00;98.30;;;;;;5118325;23;20213;-83
2021/01/16 01:14:05;;;;;;;10.02;8.15;;;0.10;98.30;;;;;;5126603;23;20205;-83
2021/01/16 01:16:07;;;;;;;10.23;8.38;;;0.10;98.30;;;;;;5118821;23;20207;-82
2021/01/16 01:18:10;;;;;;;10.02;8.07;;;0.10;98.30;;;;;;5126542;23;20457;-84
2021/01/16 01:20:13;;;;;;;9.73;8.00;;;0.20;98.30;;;;;;5126399;23;20210;-83
2021/01/16 01:22:15;;;;;;;10.68;7.80;;;0.30;98.30;;;;;;5126424;23;20229;-82
2021/01/16 01:24:18;;;;;;;10.80;8.20;;;0.30;98.30;;;;;;5125735;23;20202;-83
2021/01/16 01:26:20;;;;;;;10.18;8.32;;;0.40;98.30;;;;;;5125397;23;20194;-83
2021/01/16 01:28:22;;;;;;;11.25;8.10;;;0.40;98.30;;;;;;5124859;23;20205;-84
2021/01/16 01:30:26;;;;;;;11.05;9.32;;;0.30;98.30;;;;;;5124624;23;20217;-83
2021/01/16 01:32:29;;;;;;;10.93;8.95;;;0.30;98.30;;;;;;5126044;23;20207;-83
2021/01/16 01:34:32;;;;;;;10.82;7.93;;;0.30;98.30;;;;;;5118056;23;20202;-83
2021/01/16 01:36:37;;;;;;;9.88;7.90;;;0.30;98.30;;;;;;5126505;23;20540;-84
2021/01/16 01:38:39;;;;;;;9.90;8.45;;;0.30;98.30;;;;;;5125987;23;20209;-84
2021/01/16 01:40:41;;;;;;;10.13;8.38;;;0.30;98.30;;;;;;5125454;23;20293;-84
2021/01/16 01:42:47;;;;;;;10.80;8.43;;;0.30;98.30;;;;;;5123002;23;20206;-84
2021/01/16 01:44:49;;;;;;;7.95;7.15;;;0.30;98.30;;;;;;5123391;23;20203;-83
2021/01/16 01:46:51;;;;;;;11.32;8.95;;;0.30;98.30;;;;;;5123151;23;20198;-84
2021/01/16 01:48:54;;;;;;;10.60;7.80;;;0.40;98.30;;;;;;5123067;23;20209;-84
2021/01/16 01:50:57;;;;;;;11.35;9.00;;;0.40;98.30;;;;;;5123152;23;20228;-83
2021/01/16 01:53:01;;;;;;;10.82;8.77;;;0.50;98.30;;;;;;5123802;23;20277;-84
2021/01/16 01:55:06;;;;;;;10.57;7.75;;;0.60;98.30;;;;;;5123706;23;20601;-83
2021/01/16 01:57:10;;;;;;;10.18;8.05;;;0.60;98.30;;;;;;5123122;23;20202;-84
2021/01/16 01:59:13;;;;;;;11.18;9.00;;;0.40;98.30;;;;;;5122956;23;20837;-84
2021/01/16 02:01:19;;;;;;;9.68;7.65;;;0.40;98.30;;;;;;5123070;23;20237;-83
2021/01/16 02:03:23;;;;;;;9.68;8.13;;;0.40;98.30;;;;;;5123763;23;20503;-83
2021/01/16 02:05:26;;;;;;;10.60;8.10;;;0.30;98.30;;;;;;5124016;23;20203;-82
2021/01/16 02:07:37;;;;;;;10.57;8.20;;;0.30;98.30;;;;;;5115623;23;20603;-82
2021/01/16 02:09:40;;;;;;;10.82;8.40;;;0.30;98.30;;;;;;5123909;23;20500;-83
2021/01/16 02:11:42;;;;;;;11.25;8.30;;;0.40;98.30;;;;;;5125708;23;20278;-83
2021/01/16 02:13:46;;;;;;;8.85;7.53;;;0.30;98.30;;;;;;5117232;23;20281;-82
2021/01/16 02:15:53;;;;;;;10.93;8.43;;;0.40;98.30;;;;;;5125391;23;20207;-84
2021/01/16 02:17:59;;;;;;;10.30;7.88;;;0.30;98.30;;;;;;5125042;23;20206;-83
2021/01/16 02:20:11;;;;;;;10.48;7.80;;;0.30;98.30;;;;;;5118309;23;20721;-83
2021/01/16 02:22:15;;;;;;;10.20;8.10;;;0.20;98.30;;;;;;5126770;23;20205;-83
2021/01/16 02:24:20;;;;;;;11.75;8.50;;;0.10;98.30;;;;;;5126243;23;20225;-83
2021/01/16 02:26:50;;;;;;;11.43;8.48;;;0.10;98.30;;;;;;5126346;23;20217;-84
2021/01/16 02:28:57;;;;;;;9.48;8.02;;;0.20;98.30;;;;;;5125594;23;20535;-83
2021/01/16 02:31:00;;;;;;;17.27;8.50;;;0.20;98.30;;;;;;5125700;23;20206;-84
2021/01/16 02:33:05;;;;;;;11.65;8.75;;;0.20;98.30;;;;;;5126275;23;20198;-84
2021/01/16 02:35:12;;;;;;;12.05;9.13;;;0.10;98.30;;;;;;5125595;23;20203;-84
2021/01/16 02:37:35;;;;;;;12.38;9.02;;;0.10;98.30;;;;;;5125632;23;20221;-84
2021/01/16 02:39:47;;;;;;;12.13;8.65;;;0.10;98.30;;;;;;5126424;23;20202;-83
2021/01/16 02:41:56;;;;;;;12.23;8.13;;;0.20;98.30;;;;;;5126039;23;20206;-84
2021/01/16 02:44:12;;;;;;;11.82;8.85;;;0.10;98.30;;;;;;5127103;23;20285;-83
2021/01/16 02:46:28;;;;;;;11.50;8.35;;;0.10;98.30;;;;;;5127956;23;20585;-84
2021/01/16 02:48:47;;;;;;;12.70;9.45;;;0.00;98.30;;;;;;5126886;23;20596;-83
2021/01/16 02:50:52;;;;;;;11.70;9.27;;;0.00;98.30;;;;;;5125203;23;20209;-84
2021/01/16 02:52:56;;;;;;;11.52;9.05;;;-0.10;98.30;;;;;;5127913;23;20222;-84
2021/01/16 02:55:02;;;;;;;10.00;8.13;;;-0.10;98.30;;;;;;5128611;23;20248;-83
2021/01/16 02:57:09;;;;;;;11.18;8.95;;;-0.10;98.30;;;;;;5128378;23;20216;-84
2021/01/16 02:59:15;;;;;;;10.63;8.55;;;-0.10;98.30;;;;;;5127387;23;20205;-83
2021/01/16 03:01:17;;;;;;;11.95;9.48;;;-0.10;98.30;;;;;;5129252;23;20220;-85
2021/01/16 03:03:19;;;;;;;11.45;9.15;;;-0.10;98.30;;;;;;5126151;23;20213;-83
2021/01/16 03:05:23;;;;;;;11.80;9.23;;;-0.10;98.30;;;;;;5125970;23;20278;-83
2021/01/16 03:07:28;;;;;;;12.07;9.20;;;0.00;98.30;;;;;;5125912;23;20288;-83
2021/01/16 03:09:37;;;;;;;12.63;9.65;;;-0.10;98.30;;;;;;5125839;23;20275;-83
2021/01/16 03:11:46;;;;;;;10.27;8.65;;;0.00;98.30;;;;;;5125569;23;20205;-83
2021/01/16 03:13:51;;;;;;;11.25;8.40;;;0.00;98.30;;;;;;5126254;23;20216;-83
2021/01/16 03:15:57;;;;;;;12.57;9.32;;;0.00;98.30;;;;;;5126005;23;20209;-83
2021/01/16 03:18:01;;;;;;;11.75;8.88;;;0.00;98.30;;;;;;5125664;23;20287;-83
2021/01/16 03:20:05;;;;;;;12.82;8.70;;;0.00;98.30;;;;;;5125245;23;20232;-83
2021/01/16 03:22:21;;;;;;;10.90;9.18;;;0.00;98.30;;;;;;5125480;23;20706;-83
2021/01/16 03:24:23;;;;;;;10.23;8.60;;;-0.10;98.30;;;;;;5126094;23;20202;-84
2021/01/16 03:26:25;;;;;;;11.50;9.15;;;-0.10;98.30;;;;;;5126915;23;20241;-82
2021/01/16 03:28:27;;;;;;;11.90;9.93;;;0.00;98.30;;;;;;5127169;23;20202;-82
2021/01/16 03:30:33;;;;;;;13.85;9.95;;;0.00;98.30;;;;;;5125757;23;20202;-83
2021/01/16 03:32:44;;;;;;;10.85;7.93;;;0.00;98.30;;;;;;5124536;23;20208;-83
2021/01/16 03:35:00;;;;;;;11.10;8.82;;;-0.10;98.30;;;;;;5125883;23;20241;-84
2021/01/16 03:37:02;;;;;;;12.93;9.40;;;-0.10;98.30;;;;;;5130529;23;20242;-82
2021/01/16 03:39:05;;;;;;;12.75;9.07;;;-0.10;98.30;;;;;;5140920;23;20207;-83
2021/01/16 03:41:07;;;;;;;12.30;9.40;;;-0.20;98.30;;;;;;5139792;23;20208;-83
2021/01/16 03:43:09;;;;;;;10.60;9.27;;;-0.10;98.30;;;;;;5126457;23;20279;-83
2021/01/16 03:45:13;;;;;;;12.90;9.95;;;-0.10;98.30;;;;;;5131348;22;20780;-81
2021/01/16 03:47:15;;;;;;;11.90;9.20;;;-0.10;98.30;;;;;;5141780;23;20234;-82
2021/01/16 03:49:19;;;;;;;12.50;9.45;;;-0.10;98.30;;;;;;5140862;23;20208;-82
2021/01/16 03:51:21;;;;;;;11.45;8.93;;;-0.20;98.30;;;;;;5131435;23;20539;-84
2021/01/16 03:53:26;;;;;;;11.52;9.43;;;-0.20;98.30;;;;;;5127685;23;20204;-83
2021/01/16 03:55:33;;;;;;;11.80;8.73;;;-0.10;98.30;;;;;;5127692;23;20237;-84
2021/01/16 03:57:43;;;;;;;13.00;8.45;;;0.00;98.30;;;;;;5126506;23;20205;-83
2021/01/16 03:59:52;;;;;;;13.15;9.68;;;0.00;98.30;;;;;;5126874;23;20333;-84
2021/01/16 04:01:56;;;;;;;12.18;8.60;;;0.00;98.30;;;;;;5127589;23;20239;-83
2021/01/16 04:03:59;;;;;;;12.65;9.07;;;0.00;98.30;;;;;;5127823;23;20218;-83
2021/01/16 04:06:08;;;;;;;11.15;8.30;;;0.00;98.30;;;;;;5125817;23;20241;-83
2021/01/16 04:08:20;;;;;;;11.95;8.70;;;0.00;98.30;;;;;;5125330;23;20210;-83
2021/01/16 04:10:27;;;;;;;10.98;8.32;;;0.00;98.30;;;;;;5125670;23;20236;-83
2021/01/16 04:12:29;;;;;;;10.68;8.70;;;0.00;98.30;;;;;;5125693;23;20199;-84
2021/01/16 04:14:31;;;;;;;11.45;8.32;;;-0.10;98.30;;;;;;5127843;23;20247;-84
2021/01/16 04:16:34;;;;;;;11.57;8.85;;;-0.10;98.30;;;;;;5126959;23;20211;-83
2021/01/16 04:18:36;;;;;;;9.65;7.65;;;0.00;98.30;;;;;;5117350;23;20692;-83
2021/01/16 04:20:39;;;;;;;11.60;9.02;;;0.00;98.30;;;;;;5125334;23;20654;-82
2021/01/16 04:22:42;;;;;;;11.05;8.80;;;0.00;98.30;;;;;;5125434;23;20201;-83
2021/01/16 04:24:44;;;;;;;11.68;9.25;;;0.00;98.30;;;;;;5126076;23;20259;-83
2021/01/16 04:26:49;;;;;;;14.70;10.43;;;0.10;98.30;;;;;;5124649;23;20232;-82
2021/01/16 04:28:51;;;;;;;11.73;8.75;;;0.20;98.30;;;;;;5124639;23;20671;-82
2021/01/16 04:30:53;;;;;;;10.68;8.43;;;0.30;98.30;;;;;;5116659;23;20538;-83
2021/01/16 04:32:56;;;;;;;10.38;8.55;;;0.30;98.30;;;;;;5124161;23;20291;-83
2021/01/16 04:34:58;;;;;;;9.48;7.65;;;0.30;98.30;;;;;;5116485;23;20328;-82
2021/01/16 04:37:03;;;;;;;11.15;9.10;;;0.10;98.30;;;;;;5124342;23;20206;-83
2021/01/16 04:39:07;;;;;;;9.98;7.85;;;0.10;98.30;;;;;;5124712;23;20225;-83
2021/01/16 04:41:13;;;;;;;12.98;8.40;;;0.10;98.30;;;;;;5124124;23;20658;-83
2021/01/16 04:43:16;;;;;;;9.23;8.23;;;0.20;98.30;;;;;;5124991;23;20347;-83
2021/01/16 04:45:26;;;;;;;12.05;9.00;;;0.20;98.30;;;;;;5124560;23;20232;-83
2021/01/16 04:47:29;;;;;;;11.02;8.40;;;0.20;98.30;;;;;;5116857;23;20249;-82
2021/01/16 04:49:34;;;;;;;10.98;7.70;;;0.20;98.30;;;;;;5124057;23;20875;-83
2021/01/16 04:51:48;;;;;;;10.50;7.97;;;0.30;98.30;;;;;;5124553;23;20202;-83
2021/01/16 04:53:57;;;;;;;12.98;8.88;;;0.30;98.30;;;;;;5124620;23;20241;-83
2021/01/16 04:56:04;;;;;;;10.35;8.77;;;0.30;98.30;;;;;;5124246;23;20229;-83
2021/01/16 04:58:08;;;;;;;11.30;8.45;;;0.30;98.30;;;;;;5124212;23;20282;-83
2021/01/16 05:00:12;;;;;;;10.50;8.07;;;0.30;98.30;;;;;;5116867;23;20214;-82
2021/01/16 05:02:22;;;;;;;12.32;8.82;;;0.30;98.30;;;;;;5124725;23;20221;-83
2021/01/16 05:04:25;;;;;;;10.88;8.40;;;0.20;98.30;;;;;;5125072;23;20515;-83
2021/01/16 05:06:29;;;;;;;10.30;8.40;;;0.20;98.30;;;;;;5125029;23;20199;-83
2021/01/16 05:08:32;;;;;;;10.55;8.45;;;0.30;98.30;;;;;;5124406;23;20263;-83
2021/01/16 05:10:41;;;;;;;10.60;8.13;;;0.30;98.30;;;;;;5124584;23;20210;-83
2021/01/16 05:13:03;;;;;;;9.55;8.40;;;0.30;98.30;;;;;;5127661;23;20202;-83
2021/01/16 05:15:07;;;;;;;10.10;7.65;;;0.30;98.30;;;;;;5136375;23;20255;-83
2021/01/16 05:17:11;;;;;;;10.40;8.75;;;0.20;98.30;;;;;;5131233;23;20217;-82
2021/01/16 05:19:15;;;;;;;12.30;9.30;;;0.20;98.30;;;;;;5123207;23;20214;-82
2021/01/16 05:21:19;;;;;;;10.07;7.90;;;0.20;98.30;;;;;;5115546;23;20313;-82
2021/01/16 05:23:21;;;;;;;10.73;8.23;;;0.30;98.30;;;;;;5128171;23;20213;-83
2021/01/16 05:25:32;;;;;;;11.88;9.07;;;0.20;98.30;;;;;;5129764;23;20534;-83
2021/01/16 05:27:37;;;;;;;11.70;8.80;;;0.20;98.30;;;;;;5136536;23;20202;-82
2021/01/16 05:29:44;;;;;;;8.10;7.20;;;0.20;98.30;;;;;;5124644;23;20274;-83
2021/01/16 05:31:48;;;;;;;11.52;8.75;;;0.20;98.30;;;;;;5126191;23;20198;-83
2021/01/16 05:33:51;;;;;;;11.40;8.15;;;0.20;98.30;;;;;;5117330;23;20748;-83
2021/01/16 05:35:54;;;;;;;11.20;8.80;;;0.20;98.30;;;;;;5125247;23;20198;-83
2021/01/16 05:37:57;;;;;;;9.70;8.25;;;0.10;98.30;;;;;;5124099;23;20274;-82
2021/01/16 05:39:59;;;;;;;10.63;8.95;;;0.00;98.30;;;;;;5124341;23;20195;-83
2021/01/16 05:42:03;;;;;;;10.43;7.85;;;0.00;98.30;;;;;;5124477;23;20705;-83
2021/01/16 05:44:07;;;;;;;9.55;7.82;;;0.00;98.30;;;;;;5124247;23;20595;-83
2021/01/16 05:46:13;;;;;;;11.82;8.48;;;0.00;98.30;;;;;;5127331;23;20198;-83
2021/01/16 05:48:17;;;;;;;10.25;8.43;;;-0.10;98.30;;;;;;5127486;23;20205;-83
2021/01/16 05:50:25;;;;;;;10.38;8.60;;;0.00;98.30;;;;;;5128284;23;20262;-82
2021/01/16 05:52:30;;;;;;;11.00;8.70;;;0.00;98.30;;;;;;5127842;23;20945;-83
2021/01/16 05:54:32;;;;;;;12.45;9.00;;;0.00;98.30;;;;;;5119588;23;20628;-83
2021/01/16 05:56:38;;;;;;;10.88;8.18;;;-0.10;98.30;;;;;;5127997;23;20627;-83
2021/01/16 05:58:44;;;;;;;10.52;8.80;;;-0.10;98.30;;;;;;5126521;23;20225;-83
2021/01/16 06:00:52;;;;;;;11.18;9.05;;;-0.20;98.30;;;;;;5127272;23;20222;-82
2021/01/16 06:02:59;;;;;;;10.25;8.27;;;-0.30;98.30;;;;;;5127036;23;20220;-82
2021/01/16 06:05:01;;;;;;;10.40;8.43;;;-0.40;98.30;;;;;;5127095;23;20283;-82
2021/01/16 06:07:06;;;;;;;11.20;8.85;;;-0.40;98.30;;;;;;5126826;23;20285;-82
2021/01/16 06:09:14;;;;;;;11.20;8.63;;;-0.30;98.30;;;;;;5127031;23;20249;-82
2021/01/16 06:11:17;;;;;;;9.73;8.15;;;-0.20;98.30;;;;;;5118973;23;20209;-82
2021/01/16 06:13:24;;;;;;;12.30;8.20;;;-0.30;98.30;;;;;;5126989;23;20262;-82
2021/01/16 06:15:35;;;;;;;9.27;7.95;;;-0.30;98.30;;;;;;5127748;23;20647;-82
2021/01/16 06:17:40;;;;;;;12.48;9.20;;;-0.30;98.30;;;;;;5126759;23;20212;-82
2021/01/16 06:19:45;;;;;;;11.30;8.55;;;-0.30;98.30;;;;;;5127828;23;20260;-82
2021/01/16 06:21:47;;;;;;;10.98;8.27;;;-0.30;98.30;;;;;;5128074;23;20589;-82
2021/01/16 06:23:53;;;;;;;11.48;8.65;;;-0.30;98.30;;;;;;5127595;23;20251;-82
2021/01/16 06:25:57;;;;;;;12.38;9.60;;;-0.30;98.30;;;;;;5127520;23;20261;-83
2021/01/16 06:28:04;;;;;;;12.38;8.75;;;-0.20;98.30;;;;;;5126246;23;20208;-82
2021/01/16 06:30:07;;;;;;;13.27;9.73;;;-0.20;98.30;;;;;;5126460;23;20206;-82
2021/01/16 06:32:11;;;;;;;17.42;13.07;;;-0.30;98.30;;;;;;5126210;23;20518;-83
2021/01/16 06:34:28;;;;;;;10.48;8.73;;;-0.40;98.30;;;;;;5126425;23;20219;-82
2021/01/16 06:36:36;;;;;;;13.18;9.93;;;-0.40;98.30;;;;;;5118452;23;20223;-83
2021/01/16 06:38:39;;;;;;;12.02;9.27;;;-0.40;98.30;;;;;;5126663;23;20277;-83
2021/01/16 06:40:44;;;;;;;12.85;9.25;;;-0.50;98.30;;;;;;5125934;23;20257;-82
2021/01/16 06:42:51;;;;;;;11.82;9.40;;;-0.50;98.30;;;;;;5126965;23;20256;-83
2021/01/16 06:45:03;;;;;;;11.38;8.48;;;-0.60;98.30;;;;;;5126232;23;20593;-83
2021/01/16 06:47:05;;;;;;;12.95;9.20;;;-0.60;98.30;;;;;;5125622;23;20202;-82
2021/01/16 06:49:08;;;;;;;10.70;9.27;;;-0.60;98.30;;;;;;5125360;23;20705;-83
2021/01/16 06:51:13;;;;;;;14.93;11.10;;;-0.60;98.30;;;;;;5126116;23;20206;-85
2021/01/16 06:53:26;;;;;;;18.25;12.18;;;-0.70;98.30;;;;;;5125371;23;20598;-83
2021/01/16 06:55:32;;;;;;;21.63;12.23;;;-0.70;98.30;;;;;;5125277;23;20213;-83
2021/01/16 06:57:48;;;;;;;;;;;;;;;;;;;;;
2021/01/16 07:00:01;;;;;;;21.15;14.77;;;-0.70;98.30;;;;;;5117664;23;20214;-83
2021/01/16 07:02:27;;;;;;;15.30;11.35;;;-0.80;98.30;;;;;;5137517;22;20209;-81
2021/01/16 07:04:32;;;;;;;14.07;10.43;;;-0.80;98.30;;;;;;5175392;23;20949;-80
2021/01/16 07:06:45;;;;;;;11.10;9.05;;;-0.70;98.30;;;;;;5174993;23;20198;-80
2021/01/16 07:08:50;;;;;;;12.82;10.10;;;-0.80;98.30;;;;;;5174881;23;20212;-80
2021/01/16 07:10:53;;;;;;;12.07;10.35;;;-0.80;98.30;;;;;;5175281;23;20201;-81
2021/01/16 07:12:55;;;;;;;13.23;9.98;;;-0.80;98.30;;;;;;5153648;23;20211;-80
2021/01/16 07:14:57;;;;;;;12.98;9.93;;;-0.80;98.30;;;;;;5150105;23;20301;-80
2021/01/16 07:17:00;;;;;;;13.45;9.90;;;-0.90;98.30;;;;;;5141343;23;20210;-80
2021/01/16 07:19:03;;;;;;;13.00;10.07;;;-0.90;98.30;;;;;;5141444;23;20297;-81
2021/01/16 07:21:06;;;;;;;15.20;10.68;;;-0.90;98.30;;;;;;5141286;23;20201;-80
2021/01/16 07:23:09;;;;;;;11.23;9.63;;;-0.90;98.30;;;;;;5141852;23;20202;-81
2021/01/16 07:25:13;;;;;;;15.27;9.40;;;-0.90;98.30;;;;;;5149911;23;20206;-81
2021/01/16 07:27:18;;;;;;;12.40;9.45;;;-0.90;98.30;;;;;;5141838;23;20521;-81
2021/01/16 07:29:20;;;;;;;12.05;8.75;;;-0.90;98.30;;;;;;5149455;23;20202;-80
2021/01/16 07:31:23;;;;;;;11.05;8.63;;;-1.00;98.30;;;;;;5149586;23;20202;-81
2021/01/16 07:33:29;;;;;;;14.40;9.90;;;-1.00;98.30;;;;;;5141406;23;20207;-80
2021/01/16 07:35:34;;;;;;;12.98;9.68;;;-1.00;98.30;;;;;;5141906;23;20260;-80
2021/01/16 07:37:36;;;;;;;12.07;9.25;;;-1.00;98.30;;;;;;5149171;23;20231;-80
2021/01/16 07:39:58;;;;;;;13.02;9.45;;;-1.00;98.30;;;;;;5150946;23;20206;-80
2021/01/16 07:42:08;;;;;;;12.30;9.60;;;-1.00;98.30;;;;;;5151424;23;20240;-80
2021/01/16 07:44:11;;;;;;;12.18;8.80;;;-1.00;98.30;;;;;;5146714;23;20216;-81
2021/01/16 07:46:19;;;;;;;10.52;8.75;;;-0.90;98.30;;;;;;5153183;23;20281;-80
2021/01/16 07:48:24;;;;;;;12.65;9.73;;;-0.90;98.30;;;;;;5141318;23;20264;-80
2021/01/16 07:50:27;;;;;;;13.90;10.25;;;-0.90;98.30;;;;;;5149831;23;20206;-80
2021/01/16 07:52:29;;;;;;;11.77;9.35;;;-0.90;98.30;;;;;;5143605;23;20261;-80
2021/01/16 07:54:33;;;;;;;12.95;10.13;;;-0.90;98.30;;;;;;5150324;23;20213;-80
2021/01/16 07:56:36;;;;;;;13.85;9.70;;;-0.90;98.30;;;;;;5142898;23;20210;-80
2021/01/16 07:58:49;;;;;;;13.07;9.48;;;-0.80;98.30;;;;;;5144183;23;20212;-80
2021/01/16 08:00:57;;;;;;;11.65;9.05;;;-0.80;98.30;;;;;;5143322;23;20248;-80
2021/01/16 08:03:14;;;;;;;13.13;8.95;;;-0.70;98.30;;;;;;5141652;23;20220;-80
2021/01/16 08:05:26;;;;;;;13.48;10.10;;;-0.60;98.30;;;;;;5150269;23;20209;-81
2021/01/16 08:07:52;;;;;;;13.40;10.15;;;-0.50;98.30;;;;;;5141429;23;20605;-80
2021/01/16 08:09:55;;;;;;;13.55;10.55;;;-0.30;98.30;;;;;;5150594;23;20285;-81
2021/01/16 08:12:03;;;;;;;11.48;9.68;;;-0.40;98.30;;;;;;5142154;23;20816;-81
2021/01/16 08:14:19;;;;;;;13.40;10.38;;;-0.20;98.30;;;;;;5142136;23;20532;-80
2021/01/16 08:16:24;;;;;;;12.57;9.90;;;-0.20;98.30;;;;;;5123207;23;20203;-81
2021/01/16 08:18:29;;;;;;;14.35;10.65;;;-0.10;98.30;;;;;;5141346;23;20208;-80
2021/01/16 08:20:39;;;;;;;38.90;22.75;;;0.00;98.30;;;;;;5141326;23;20258;-81
2021/01/16 08:22:43;;;;;;;12.13;10.05;;;0.10;98.30;;;;;;5141445;23;20203;-80
2021/01/16 08:25:01;;;;;;;25.25;16.63;;;0.10;98.30;;;;;;5149444;23;20211;-81
2021/01/16 08:27:07;;;;;;;35.40;21.00;;;0.00;98.30;;;;;;5149288;23;20529;-81
2021/01/16 08:29:17;;;;;;;12.35;9.02;;;-0.10;98.30;;;;;;5149288;23;20210;-79
2021/01/16 08:31:27;;;;;;;12.82;9.45;;;-0.10;98.30;;;;;;5139965;23;20232;-80
2021/01/16 08:33:33;;;;;;;11.60;8.15;;;-0.10;98.30;;;;;;5140856;23;20235;-80
2021/01/16 08:35:43;;;;;;;12.27;9.23;;;-0.10;98.30;;;;;;5150067;23;20260;-81
2021/01/16 08:37:47;;;;;;;12.27;9.50;;;0.00;98.30;;;;;;5140132;23;20212;-81
2021/01/16 08:39:49;;;;;;;10.27;8.15;;;0.00;98.30;;;;;;5149140;23;20250;-80
2021/01/16 08:42:02;;;;;;;11.88;9.13;;;-0.10;98.30;;;;;;5140772;23;20734;-80
2021/01/16 08:44:05;;;;;;;12.40;8.68;;;-0.10;98.30;;;;;;5148804;23;20224;-80
2021/01/16 08:46:13;;;;;;;11.82;8.45;;;-0.20;98.30;;;;;;5140790;23;20219;-80
2021/01/16 08:48:24;;;;;;;14.32;10.70;;;-0.10;98.30;;;;;;5148725;23;20740;-80
2021/01/16 08:50:30;;;;;;;21.15;15.32;;;0.00;98.30;;;;;;5140670;23;20605;-80
2021/01/16 08:52:33;;;;;;;10.93;9.15;;;0.20;98.30;;;;;;5148893;23;20211;-80
2021/01/16 08:54:35;;;;;;;11.45;7.97;;;0.40;98.30;;;;;;5149532;23;20209;-80
2021/01/16 08:56:38;;;;;;;9.70;8.50;;;0.60;98.30;;;;;;5148903;23;20287;-81
2021/01/16 08:58:41;;;;;;;11.07;8.02;;;0.90;98.30;;;;;;5148932;23;20547;-80
2021/01/16 09:00:43;;;;;;;11.38;9.05;;;1.30;98.30;;;;;;5140054;23;20212;-81
2021/01/16 09:03:04;;;;;;;10.00;7.78;;;1.40;98.30;;;;;;5139708;23;20213;-80
2021/01/16 09:05:22;;;;;;;11.40;7.80;;;1.40;98.30;;;;;;5148584;23;20208;-80
2021/01/16 09:07:25;;;;;;;8.80;7.45;;;1.50;98.30;;;;;;5140769;23;20205;-80
2021/01/16 09:09:28;;;;;;;9.13;6.93;;;1.40;98.30;;;;;;5140227;23;20264;-81
2021/01/16 09:11:30;;;;;;;11.60;8.50;;;1.40;98.30;;;;;;5148547;23;20363;-81
2021/01/16 09:13:41;;;;;;;9.90;7.60;;;1.40;98.30;;;;;;5149123;23;20809;-80
2021/01/16 09:15:44;;;;;;;11.15;8.30;;;1.20;98.30;;;;;;5140872;23;20205;-81
2021/01/16 09:18:11;;;;;;;11.80;7.80;;;1.10;98.30;;;;;;5148605;23;20711;-81
2021/01/16 09:20:24;;;;;;;13.00;8.73;;;1.00;98.30;;;;;;5140507;23;20205;-81
2021/01/16 09:22:28;;;;;;;33.25;20.33;;;1.00;98.30;;;;;;5148277;23;20201;-81
2021/01/16 09:24:30;;;;;;;9.82;7.80;;;1.00;98.30;;;;;;5140901;23;20284;-81
2021/01/16 09:26:36;;;;;;;13.82;8.40;;;1.00;98.30;;;;;;5148725;23;20248;-80
2021/01/16 09:28:49;;;;;;;9.63;7.80;;;0.90;98.30;;;;;;5148980;23;20206;-80
2021/01/16 09:30:52;;;;;;;9.93;7.65;;;0.90;98.30;;;;;;5140767;23;20284;-81
2021/01/16 09:32:54;;;;;;;13.35;8.40;;;0.90;98.30;;;;;;5140727;23;20298;-80
2021/01/16 09:34:57;;;;;;;9.30;7.55;;;1.00;98.30;;;;;;5149515;23;20665;-80
2021/01/16 09:37:00;;;;;;;11.57;8.18;;;1.00;98.30;;;;;;5141463;23;20232;-81
2021/01/16 09:39:03;;;;;;;11.57;7.35;;;1.10;98.30;;;;;;5150292;23;20220;-81
2021/01/16 09:41:05;;;;;;;9.35;7.65;;;1.10;98.30;;;;;;5141750;23;20296;-80
2021/01/16 09:43:16;;;;;;;10.25;7.60;;;1.00;98.30;;;;;;5150656;23;20206;-82
2021/01/16 09:45:18;;;;;;;10.98;7.60;;;1.00;98.30;;;;;;5150483;23;20900;-80
2021/01/16 09:47:42;;;;;;;15.20;11.52;;;1.10;98.30;;;;;;5139923;23;20213;-81
2021/01/16 09:49:45;;;;;;;11.20;8.55;;;0.90;98.30;;;;;;5140731;23;20389;-81
2021/01/16 09:51:48;;;;;;;10.90;8.13;;;1.00;98.30;;;;;;5148769;23;20224;-81
2021/01/16 09:53:50;;;;;;;10.88;8.32;;;1.00;98.30;;;;;;5140680;23;20220;-80
2021/01/16 09:55:54;;;;;;;10.68;8.20;;;1.00;98.30;;;;;;5149108;23;20290;-81
2021/01/16 09:57:56;;;;;;;10.52;8.15;;;1.00;98.30;;;;;;5140068;23;20540;-82
2021/01/16 10:00:09;;;;;;;14.70;7.90;;;1.10;98.30;;;;;;5140236;23;20206;-81
2021/01/16 10:02:14;;;;;;;13.32;8.45;;;1.10;98.30;;;;;;5149215;23;20547;-81
2021/01/16 10:04:23;;;;;;;9.63;7.85;;;1.10;98.30;;;;;;5146967;23;20284;-81
2021/01/16 10:06:34;;;;;;;9.25;8.27;;;1.10;98.30;;;;;;5146083;23;20255;-81
2021/01/16 10:08:39;;;;;;;9.82;8.45;;;1.30;98.30;;;;;;5144899;23;20591;-81
2021/01/16 10:10:43;;;;;;;9.32;7.70;;;1.60;98.30;;;;;;5144828;23;20244;-80
2021/01/16 10:12:46;;;;;;;8.75;7.85;;;2.00;98.30;;;;;;5145291;23;20224;-80
2021/01/16 10:14:52;;;;;;;12.50;9.35;;;2.10;98.30;;;;;;5145112;23;20214;-80
2021/01/16 10:17:10;;;;;;;10.70;8.10;;;2.30;98.30;;;;;;5136429;23;20358;-81
2021/01/16 10:19:14;;;;;;;9.15;6.95;;;2.80;98.30;;;;;;5147475;23;20212;-81
2021/01/16 10:21:20;;;;;;;11.52;8.18;;;2.90;97.50;;;;;;5140020;23;20297;-81
2021/01/16 10:23:27;;;;;;;10.63;8.43;;;2.70;98.30;;;;;;5148642;23;20280;-81
2021/01/16 10:25:38;;;;;;;13.45;8.10;;;2.60;98.30;;;;;;5140604;23;20280;-81
2021/01/16 10:27:49;;;;;;;9.80;8.27;;;2.30;98.30;;;;;;5138988;23;20657;-81
2021/01/16 10:29:55;;;;;;;12.50;7.55;;;2.50;98.30;;;;;;5146346;23;20205;-76
2021/01/16 10:32:18;;;;;;;9.38;6.97;;;2.70;98.30;;;;;;5139150;23;20210;-76
2021/01/16 10:34:30;;;;;;;11.98;8.35;;;2.80;97.80;;;;;;5139619;23;20217;-76
2021/01/16 10:36:34;;;;;;;10.02;8.10;;;2.60;97.40;;;;;;5140831;23;20210;-79
2021/01/16 10:38:58;;;;;;;10.35;7.80;;;2.40;98.10;;;;;;5141893;23;20684;-80
2021/01/16 10:41:02;;;;;;;11.15;8.65;;;2.60;98.30;;;;;;5150507;23;20202;-80
2021/01/16 10:43:03;;;;;;;9.38;6.97;;;3.10;97.80;;;;;;5142273;23;20216;-80
2021/01/16 10:45:06;;;;;;;10.40;7.32;;;3.30;97.20;;;;;;5142573;23;20229;-80
2021/01/16 10:47:32;;;;;;;9.57;7.32;;;3.50;95.00;;;;;;5149644;23;20197;-81
2021/01/16 10:49:49;;;;;;;7.38;6.13;;;3.50;94.40;;;;;;5150015;23;20201;-81
2021/01/16 10:51:54;;;;;;;9.18;7.00;;;3.40;94.50;;;;;;5141583;23;20210;-81
2021/01/16 10:54:00;;;;;;;10.77;6.80;;;3.60;95.50;;;;;;5142071;23;20981;-81